createdAt,value
2022-08-14T00:01:31.022Z,93938.00
2022-08-14T00:05:33.609Z,93933.00
2022-08-14T00:09:56.298Z,93932.00
2022-08-14T00:14:02.409Z,93939.00
2022-08-14T00:18:05.251Z,93927.00
2022-08-14T00:22:08.950Z,93923.00
2022-08-14T00:26:23.257Z,93919.00
2022-08-14T00:30:27.128Z,93910.00
2022-08-14T00:34:37.021Z,93910.00
2022-08-14T00:38:48.937Z,93916.00
2022-08-14T00:43:11.972Z,93922.00
2022-08-14T00:47:17.444Z,93906.00
2022-08-14T00:51:22.091Z,93913.00
2022-08-14T00:55:25.485Z,93909.00
2022-08-14T00:59:29.001Z,93901.00
2022-08-14T01:03:32.241Z,93913.00
2022-08-14T01:07:38.917Z,93912.00
2022-08-14T01:12:02.570Z,93906.00
2022-08-14T01:16:09.249Z,93911.00
2022-08-14T01:20:35.267Z,93911.00
2022-08-14T01:24:43.585Z,93911.00
2022-08-14T01:28:56.786Z,93915.00
2022-08-14T01:32:59.746Z,93912.00
2022-08-14T01:37:03.214Z,93915.00
2022-08-14T01:41:15.027Z,93919.00
2022-08-14T01:45:25.573Z,93910.00
2022-08-14T01:49:35.405Z,93914.00
2022-08-14T01:53:40.544Z,93911.00
2022-08-14T01:57:49.510Z,93909.00
2022-08-14T02:06:41.361Z,93902.00
2022-08-14T02:10:47.369Z,93892.00
2022-08-14T02:14:50.818Z,93893.00
2022-08-14T02:19:07.282Z,93891.00
2022-08-14T02:23:09.810Z,93892.00
2022-08-14T02:28:22.349Z,93882.00
2022-08-14T02:31:43.383Z,93883.00
2022-08-14T02:35:53.492Z,93882.00
2022-08-14T02:40:07.735Z,93891.00
2022-08-14T02:44:12.653Z,93888.00
2022-08-14T02:49:01.971Z,93882.00
2022-08-14T02:52:55.942Z,93887.00
2022-08-14T02:57:14.327Z,93885.00
2022-08-14T03:01:21.366Z,93879.00
2022-08-14T03:05:35.793Z,93877.00
2022-08-14T03:10:24.511Z,93877.00
2022-08-14T03:14:03.136Z,93876.00
2022-08-14T03:18:09.894Z,93880.00
2022-08-14T03:22:17.553Z,93875.00
2022-08-14T03:26:30.402Z,93879.00
2022-08-14T03:30:38.970Z,93871.00
2022-08-14T03:34:47.728Z,93871.00
2022-08-14T03:39:15.589Z,93868.00
2022-08-14T03:43:18.753Z,93873.00
2022-08-14T03:47:21.123Z,93878.00
2022-08-14T03:51:28.871Z,93862.00
2022-08-14T03:55:31.546Z,93875.00
2022-08-14T03:59:35.279Z,93872.00
2022-08-14T04:03:37.871Z,93873.00
2022-08-14T04:07:41.539Z,93868.00
2022-08-14T04:11:52.111Z,93876.00
2022-08-14T04:16:01.259Z,93872.00
2022-08-14T04:20:07.174Z,93870.00
2022-08-14T04:24:14.269Z,93857.00
2022-08-14T04:29:08.917Z,93854.00
2022-08-14T04:33:00.365Z,93848.00
2022-08-14T04:37:25.590Z,93853.00
2022-08-14T04:41:46.551Z,93861.00
2022-08-14T04:45:51.483Z,93857.00
2022-08-14T04:49:56.958Z,93858.00
2022-08-14T04:54:01.529Z,93852.00
2022-08-14T04:58:07.231Z,93846.00
2022-08-14T05:02:25.617Z,93851.00
2022-08-14T05:06:34.990Z,93841.00
2022-08-14T05:10:44.605Z,93835.00
2022-08-14T05:14:53.410Z,93841.00
2022-08-14T05:19:24.890Z,93839.00
2022-08-14T05:23:24.885Z,93827.00
2022-08-14T05:27:31.056Z,93826.00
2022-08-14T05:31:40.258Z,93831.00
2022-08-14T05:35:44.455Z,93828.00
2022-08-14T05:39:48.779Z,93821.00
2022-08-14T05:43:51.373Z,93819.00
2022-08-14T05:47:53.400Z,93818.00
2022-08-14T05:51:55.614Z,93815.00
2022-08-14T05:56:01.038Z,93825.00
2022-08-14T06:00:04.996Z,93816.00
2022-08-14T06:04:08.090Z,93824.00
2022-08-14T06:08:36.301Z,93821.00
2022-08-14T06:12:55.494Z,93831.00
2022-08-14T06:16:59.178Z,93830.00
2022-08-14T06:21:06.585Z,93827.00
2022-08-14T06:25:16.969Z,93823.00
2022-08-14T06:29:22.337Z,93828.00
2022-08-14T06:35:01.427Z,93827.00
2022-08-14T06:37:59.664Z,93824.00
2022-08-14T06:42:05.925Z,93810.00
2022-08-14T06:46:12.935Z,93811.00
2022-08-14T06:50:28.079Z,93815.00
2022-08-14T06:54:32.132Z,93803.00
2022-08-14T06:58:35.341Z,93807.00
2022-08-14T07:02:57.051Z,93808.00
2022-08-14T07:06:59.738Z,93789.00
2022-08-14T07:11:04.407Z,93792.00
2022-08-14T07:15:08.918Z,93793.00
2022-08-14T07:19:11.278Z,93800.00
2022-08-14T07:23:19.896Z,93799.00
2022-08-14T07:27:23.745Z,93800.00
2022-08-14T07:31:28.568Z,93805.00
2022-08-14T07:35:42.838Z,93809.00
2022-08-14T07:39:54.141Z,93811.00
2022-08-14T07:43:57.709Z,93799.00
2022-08-14T07:48:00.064Z,93801.00
2022-08-14T07:52:03.341Z,93802.00
2022-08-14T07:56:21.652Z,93800.00
2022-08-14T08:00:30.830Z,93805.00
2022-08-14T08:04:37.076Z,93801.00
2022-08-14T08:08:42.817Z,93793.00
2022-08-14T08:12:50.267Z,93799.00
2022-08-14T08:16:52.334Z,93798.00
2022-08-14T08:20:55.465Z,93799.00
2022-08-14T08:25:02.122Z,93801.00
2022-08-14T08:29:04.459Z,93807.00
2022-08-14T08:33:10.500Z,93806.00
2022-08-14T08:37:14.706Z,93810.00
2022-08-14T08:41:17.186Z,93803.00
2022-08-14T08:45:21.223Z,93816.00
2022-08-14T08:49:43.280Z,93808.00
2022-08-14T08:54:18.668Z,93806.00
2022-08-14T08:58:25.160Z,93803.00
2022-08-14T09:02:27.938Z,93804.00
2022-08-14T09:07:00.998Z,93798.00
2022-08-14T09:10:56.406Z,93790.00
2022-08-14T09:14:59.072Z,93791.00
2022-08-14T09:19:03.510Z,93784.00
2022-08-14T09:23:07.286Z,93784.00
2022-08-14T09:27:22.739Z,93789.00
2022-08-14T09:31:27.599Z,93803.00
2022-08-14T09:36:15.036Z,93785.00
2022-08-14T09:40:38.956Z,93785.00
2022-08-14T09:45:08.815Z,93780.00
2022-08-14T09:49:16.224Z,93775.00
2022-08-14T09:54:19.585Z,93769.00
2022-08-14T09:58:35.326Z,93758.00
2022-08-14T10:02:37.548Z,93750.00
2022-08-14T10:06:48.441Z,93740.00
2022-08-14T10:10:53.370Z,93738.00
2022-08-14T10:15:16.579Z,93742.00
2022-08-14T10:19:20.466Z,93738.00
2022-08-14T10:23:26.057Z,93744.00
2022-08-14T10:27:29.272Z,93743.00
2022-08-14T10:31:44.967Z,93732.00
2022-08-14T10:35:48.417Z,93728.00
2022-08-14T10:40:10.418Z,93738.00
2022-08-14T10:44:20.833Z,93735.00
2022-08-14T10:48:37.215Z,93738.00
2022-08-14T10:52:45.136Z,93732.00
2022-08-14T10:56:47.379Z,93738.00
2022-08-14T11:00:58.986Z,93743.00
2022-08-14T11:05:14.927Z,93746.00
2022-08-14T11:09:17.316Z,93731.00
2022-08-14T11:13:28.826Z,93731.00
2022-08-14T11:17:33.235Z,93739.00
2022-08-14T11:21:40.340Z,93731.00
2022-08-14T11:25:53.219Z,93731.00
2022-08-14T11:30:50.981Z,93734.00
2022-08-14T11:34:32.387Z,93737.00
2022-08-14T11:38:44.926Z,93732.00
2022-08-14T11:42:58.231Z,93730.00
2022-08-14T11:47:06.018Z,93724.00
2022-08-14T11:51:24.101Z,93727.00
2022-08-14T11:55:27.226Z,93729.00
2022-08-14T11:59:33.521Z,93729.00
2022-08-14T12:03:51.508Z,93723.00
2022-08-14T12:08:05.532Z,93720.00
2022-08-14T12:12:16.251Z,93718.00
2022-08-14T12:16:37.778Z,93717.00
2022-08-14T12:20:45.789Z,93712.00
2022-08-14T12:24:54.649Z,93726.00
2022-08-14T12:29:13.579Z,93719.00
2022-08-14T12:33:31.200Z,93708.00
2022-08-14T12:37:36.755Z,93703.00
2022-08-14T12:41:53.691Z,93699.00
2022-08-14T12:46:00.534Z,93701.00
2022-08-14T12:50:04.503Z,93698.00
2022-08-14T12:54:26.088Z,93689.00
2022-08-14T12:58:43.698Z,93682.00
2022-08-14T13:02:55.951Z,93683.00
2022-08-14T13:07:08.999Z,93675.00
2022-08-14T13:11:13.732Z,93668.00
2022-08-14T13:15:19.632Z,93668.00
2022-08-14T13:19:24.428Z,93651.00
2022-08-14T13:23:36.453Z,93654.00
2022-08-14T13:27:40.959Z,93637.00
2022-08-14T13:31:47.664Z,93636.00
2022-08-14T13:35:51.126Z,93634.00
2022-08-14T13:39:57.056Z,93630.00
2022-08-14T13:44:00.782Z,93638.00
2022-08-14T13:48:03.147Z,93625.00
2022-08-14T13:52:14.681Z,93618.00
2022-08-14T13:56:36.961Z,93610.00
2022-08-14T14:00:53.028Z,93601.00
2022-08-14T14:05:00.964Z,93593.00
2022-08-14T14:09:05.830Z,93592.00
2022-08-14T14:13:16.085Z,93581.00
2022-08-14T14:17:24.453Z,93579.00
2022-08-14T14:21:30.907Z,93578.00
2022-08-14T14:25:46.330Z,93567.00
2022-08-14T14:29:58.695Z,93555.00
2022-08-14T14:34:12.384Z,93572.00
2022-08-14T14:38:30.881Z,93559.00
2022-08-14T14:42:44.841Z,93550.00
2022-08-14T14:46:53.189Z,93549.00
2022-08-14T14:50:58.596Z,93553.00
2022-08-14T14:55:01.474Z,93559.00
2022-08-14T14:59:04.679Z,93561.00
2022-08-14T15:03:08.022Z,93561.00
2022-08-14T15:07:10.337Z,93554.00
2022-08-14T15:11:15.328Z,93558.00
2022-08-14T15:15:17.752Z,93558.00
2022-08-14T15:19:23.919Z,93549.00
2022-08-14T15:23:43.660Z,93553.00
2022-08-14T15:27:50.419Z,93543.00
2022-08-14T15:31:56.875Z,93539.00
2022-08-14T15:36:00.526Z,93538.00
2022-08-14T15:40:05.634Z,93545.00
2022-08-14T15:44:25.284Z,93534.00
2022-08-14T15:48:35.450Z,93540.00
2022-08-14T15:52:46.827Z,93532.00
2022-08-14T15:57:09.235Z,93529.00
2022-08-14T16:01:43.354Z,93535.00
2022-08-14T16:05:43.833Z,93522.00
2022-08-14T16:09:57.525Z,93524.00
2022-08-14T16:14:11.531Z,93523.00
2022-08-14T16:18:18.717Z,93519.00
2022-08-14T16:22:59.409Z,93516.00
2022-08-14T16:26:51.668Z,93510.00
2022-08-14T16:30:54.287Z,93506.00
2022-08-14T16:34:57.301Z,93509.00
2022-08-14T16:39:02.276Z,93500.00
2022-08-14T16:43:13.330Z,93492.00
2022-08-14T16:47:17.590Z,93491.00
2022-08-14T16:51:25.455Z,93486.00
2022-08-14T16:55:30.345Z,93493.00
2022-08-14T16:59:52.215Z,93480.00
2022-08-14T17:04:01.215Z,93482.00
2022-08-14T17:08:33.396Z,93472.00
2022-08-14T17:12:44.849Z,93472.00
2022-08-14T17:16:47.394Z,93478.00
2022-08-14T17:21:18.834Z,93477.00
2022-08-14T17:25:26.003Z,93486.00
2022-08-14T17:29:44.847Z,93477.00
2022-08-14T17:34:02.794Z,93478.00
2022-08-14T17:38:38.758Z,93482.00
2022-08-14T17:42:51.882Z,93470.00
2022-08-14T17:47:02.593Z,93482.00
2022-08-14T17:51:07.957Z,93475.00
2022-08-14T17:56:02.229Z,93475.00
2022-08-14T17:59:43.558Z,93475.00
2022-08-14T18:03:52.247Z,93479.00
2022-08-14T18:08:33.228Z,93473.00
2022-08-14T18:12:32.141Z,93482.00
2022-08-14T18:16:36.352Z,93482.00
2022-08-14T18:21:42.569Z,93483.00
2022-08-14T18:25:18.252Z,93483.00
2022-08-14T18:29:24.006Z,93480.00
2022-08-14T18:33:35.649Z,93487.00
2022-08-14T18:37:55.549Z,93491.00
2022-08-14T18:42:23.614Z,93493.00
2022-08-14T18:47:00.202Z,93500.00
2022-08-14T18:50:53.038Z,93502.00
2022-08-14T18:54:59.167Z,93502.00
2022-08-14T18:59:01.852Z,93496.00
2022-08-14T19:03:10.028Z,93503.00
2022-08-14T19:07:17.507Z,93512.00
2022-08-14T19:11:32.396Z,93508.00
2022-08-14T19:15:42.938Z,93504.00
2022-08-14T19:20:09.699Z,93512.00
2022-08-14T19:24:29.313Z,93504.00
2022-08-14T19:28:45.452Z,93495.00
2022-08-14T19:32:56.122Z,93496.00
2022-08-14T19:37:06.528Z,93503.00
2022-08-14T19:41:20.544Z,93501.00
2022-08-14T19:45:27.360Z,93497.00
2022-08-14T19:50:30.253Z,93498.00
2022-08-14T19:54:13.649Z,93501.00
2022-08-14T19:58:17.433Z,93497.00
2022-08-14T20:02:30.770Z,93506.00
2022-08-14T20:06:43.328Z,93503.00
2022-08-14T20:11:07.975Z,93497.00
2022-08-14T20:15:15.579Z,93490.00
2022-08-14T20:19:28.801Z,93494.00
2022-08-14T20:23:38.302Z,93491.00
2022-08-14T20:27:44.096Z,93487.00
2022-08-14T20:31:48.056Z,93476.00
2022-08-14T20:35:56.102Z,93477.00
2022-08-14T20:39:58.275Z,93476.00
2022-08-14T20:44:21.616Z,93472.00
2022-08-14T20:48:52.266Z,93468.00
2022-08-14T20:52:53.381Z,93473.00
2022-08-14T20:57:07.011Z,93468.00
2022-08-14T21:01:21.132Z,93475.00
2022-08-14T21:05:33.679Z,93473.00
2022-08-14T21:10:06.186Z,93473.00
2022-08-14T21:14:26.694Z,93479.00
2022-08-14T21:18:34.741Z,93477.00
2022-08-14T21:22:37.352Z,93479.00
2022-08-14T21:26:52.411Z,93475.00
2022-08-14T21:31:07.452Z,93473.00
2022-08-14T21:35:13.647Z,93483.00
2022-08-14T21:39:19.631Z,93489.00
2022-08-14T21:43:25.336Z,93475.00
2022-08-14T21:47:27.962Z,93473.00
2022-08-14T21:51:54.494Z,93468.00
2022-08-14T21:55:54.954Z,93462.00
2022-08-14T22:00:36.031Z,93466.00
2022-08-14T22:04:40.426Z,93465.00
2022-08-14T22:08:46.346Z,93450.00
2022-08-14T22:13:00.341Z,93442.00
2022-08-14T22:17:13.109Z,93440.00
2022-08-14T22:21:19.697Z,93443.00
2022-08-14T22:25:21.969Z,93440.00
2022-08-14T22:29:23.948Z,93432.00
2022-08-14T22:33:30.936Z,93433.00
2022-08-14T22:37:33.931Z,93439.00
2022-08-14T22:41:42.800Z,93429.00
2022-08-14T22:45:55.617Z,93415.00
2022-08-14T22:50:30.989Z,93423.00
2022-08-14T22:54:52.382Z,93412.00
2022-08-14T22:58:44.921Z,93413.00
2022-08-14T23:02:49.235Z,93422.00
2022-08-14T23:07:04.779Z,93407.00
2022-08-14T23:11:10.594Z,93411.00
2022-08-14T23:15:16.066Z,93408.00
2022-08-14T23:19:23.823Z,93404.00
2022-08-14T23:23:26.879Z,93390.00
2022-08-14T23:27:32.047Z,93392.00
2022-08-14T23:31:56.737Z,93395.00
2022-08-14T23:36:04.924Z,93390.00
2022-08-14T23:40:30.074Z,93390.00
2022-08-14T23:44:35.618Z,93382.00
2022-08-14T23:48:40.549Z,93380.00
2022-08-14T23:53:06.844Z,93377.00
2022-08-14T23:57:10.381Z,93371.00
